Time;durP1;ratioP1;P1;durP2;ratioP2;P2;SDS_P1;SDS_P2;PMS_P1;PMS_P2;Temp;Humidity;BMP_temperature;BMP_pressure;BME280_temperature;BME280_humidity;BME280_pressure;Samples;Min_cycle;Max_cycle;Signal;HPM_P1;HPM_P2
2024/02/18 00:03:32;;;;;;;5.55;3.72;;;;;;;;;;10445139;28;20068;-73
2024/02/18 00:08:37;;;;;;;5.38;3.47;;;;;;;;;;10460639;28;20076;-73
2024/02/18 00:13:40;;;;;;;4.68;3.47;;;;;;;;;;10463601;28;20132;-73
2024/02/18 00:18:43;;;;;;;4.35;3.50;;;;;;;;;;10461716;28;20171;-73
2024/02/18 00:23:48;;;;;;;5.30;3.63;;;;;;;;;;10454366;28;20051;-73
2024/02/18 00:28:51;;;;;;;4.40;3.67;;;;;;;;;;10450000;28;20059;-73
2024/02/18 00:33:54;;;;;;;6.78;3.65;;;;;;;;;;10445869;28;20048;-73
2024/02/18 00:38:59;;;;;;;5.22;3.38;;;;;;;;;;10457713;28;20045;-73
2024/02/18 00:44:02;;;;;;;5.57;3.35;;;;;;;;;;10451640;28;20139;-73
2024/02/18 00:49:05;;;;;;;4.55;3.28;;;;;;;;;;10444966;28;20497;-73
2024/02/18 00:54:10;;;;;;;5.60;2.95;;;;;;;;;;10466447;28;20045;-73
2024/02/18 00:59:13;;;;;;;4.97;3.20;;;;;;;;;;10459411;28;20049;-73
2024/02/18 01:04:17;;;;;;;5.63;3.33;;;;;;;;;;10454476;28;20140;-73
2024/02/18 01:09:22;;;;;;;6.85;3.55;;;;;;;;;;10459008;28;20056;-73
2024/02/18 01:14:25;;;;;;;5.32;3.08;;;;;;;;;;10467244;28;20072;-73
2024/02/18 01:19:28;;;;;;;6.65;3.97;;;;;;;;;;10468074;28;20084;-73
2024/02/18 01:24:33;;;;;;;5.18;3.40;;;;;;;;;;10462233;28;20092;-73
2024/02/18 01:29:38;;;;;;;6.70;3.83;;;;;;;;;;10467617;28;20427;-73
2024/02/18 01:34:41;;;;;;;5.90;3.30;;;;;;;;;;10472770;28;20088;-73
2024/02/18 01:39:46;;;;;;;4.28;3.20;;;;;;;;;;10462484;28;20593;-73
2024/02/18 01:44:49;;;;;;;6.07;3.30;;;;;;;;;;10467841;28;20060;-74
2024/02/18 01:49:53;;;;;;;4.72;2.78;;;;;;;;;;10456259;28;20068;-73
2024/02/18 01:54:58;;;;;;;3.42;2.72;;;;;;;;;;10463340;28;20106;-73
2024/02/18 02:00:04;;;;;;;3.17;2.60;;;;;;;;;;10468005;28;20120;-73
2024/02/18 02:05:16;;;;;;;3.65;2.50;;;;;;;;;;10472709;28;21466;-73
2024/02/18 02:10:21;;;;;;;3.70;2.60;;;;;;;;;;10470738;28;20045;-73
2024/02/18 02:15:24;;;;;;;3.05;2.40;;;;;;;;;;10464183;28;20055;-73
2024/02/18 02:20:28;;;;;;;5.18;2.40;;;;;;;;;;10449897;28;20037;-73
2024/02/18 02:25:32;;;;;;;2.80;2.42;;;;;;;;;;10463654;28;20126;-73
2024/02/18 02:30:37;;;;;;;2.92;1.95;;;;;;;;;;10457508;28;20048;-73
2024/02/18 02:35:41;;;;;;;4.47;2.35;;;;;;;;;;10448228;28;20076;-73
2024/02/18 02:40:44;;;;;;;5.00;2.10;;;;;;;;;;10439795;28;20052;-73
2024/02/18 02:45:49;;;;;;;5.15;2.03;;;;;;;;;;10448936;28;20397;-73
2024/02/18 02:50:52;;;;;;;2.22;2.00;;;;;;;;;;10449162;28;20481;-73
2024/02/18 02:55:55;;;;;;;3.80;2.40;;;;;;;;;;10452934;28;20053;-73
2024/02/18 03:01:00;;;;;;;2.38;2.10;;;;;;;;;;10450968;28;20047;-74
2024/02/18 03:06:04;;;;;;;2.50;1.90;;;;;;;;;;10469022;28;20114;-73
2024/02/18 03:11:09;;;;;;;2.65;2.08;;;;;;;;;;10460905;28;20063;-73
2024/02/18 03:16:13;;;;;;;2.42;2.22;;;;;;;;;;10460358;28;20052;-73
2024/02/18 03:21:17;;;;;;;3.15;2.13;;;;;;;;;;10457866;28;20052;-73
2024/02/18 03:26:20;;;;;;;3.30;2.03;;;;;;;;;;10462745;28;20060;-73
2024/02/18 03:31:25;;;;;;;3.35;2.58;;;;;;;;;;10447825;28;20057;-73
2024/02/18 03:36:28;;;;;;;3.50;2.30;;;;;;;;;;10446141;28;20051;-73
2024/02/18 03:41:31;;;;;;;3.03;2.13;;;;;;;;;;10443697;28;20086;-73
2024/02/18 03:46:36;;;;;;;2.78;2.00;;;;;;;;;;10451327;28;20051;-73
2024/02/18 03:51:39;;;;;;;3.15;2.50;;;;;;;;;;10450175;28;20529;-73
2024/02/18 03:56:42;;;;;;;3.72;2.20;;;;;;;;;;10456310;28;20090;-73
2024/02/18 04:01:47;;;;;;;4.15;2.10;;;;;;;;;;10442842;28;20080;-73
2024/02/18 04:06:50;;;;;;;2.92;1.83;;;;;;;;;;10456233;28;20240;-73
2024/02/18 04:11:54;;;;;;;3.65;2.17;;;;;;;;;;10471539;28;20053;-73
2024/02/18 04:16:59;;;;;;;2.45;1.83;;;;;;;;;;10460918;28;20036;-74
2024/02/18 04:22:02;;;;;;;4.05;2.40;;;;;;;;;;10460861;28;20044;-73
2024/02/18 04:27:07;;;;;;;2.10;1.70;;;;;;;;;;10465718;28;20144;-73
2024/02/18 04:32:13;;;;;;;2.03;1.58;;;;;;;;;;10457831;28;20049;-73
2024/02/18 04:37:16;;;;;;;4.53;1.90;;;;;;;;;;10460444;28;20049;-74
2024/02/18 04:42:19;;;;;;;2.72;2.00;;;;;;;;;;10461815;28;20052;-74
2024/02/18 04:47:25;;;;;;;3.00;1.60;;;;;;;;;;10454155;28;20048;-74
2024/02/18 04:52:28;;;;;;;3.20;2.15;;;;;;;;;;10447181;28;20056;-73
2024/02/18 04:57:32;;;;;;;2.47;1.60;;;;;;;;;;10437813;28;20530;-74
2024/02/18 05:02:36;;;;;;;2.00;1.73;;;;;;;;;;10462843;28;20037;-73
2024/02/18 05:07:39;;;;;;;1.98;1.70;;;;;;;;;;10446897;28;20052;-73
2024/02/18 05:12:43;;;;;;;2.13;1.58;;;;;;;;;;10458977;22;20071;-75
2024/02/18 05:17:47;;;;;;;3.38;1.90;;;;;;;;;;10423347;28;20120;-75
2024/02/18 05:22:51;;;;;;;2.35;1.90;;;;;;;;;;10413621;28;20810;-75
2024/02/18 05:27:54;;;;;;;3.00;1.90;;;;;;;;;;10426371;28;20101;-74
2024/02/18 05:32:59;;;;;;;4.13;2.58;;;;;;;;;;10422807;28;20135;-76
2024/02/18 05:38:02;;;;;;;4.57;2.33;;;;;;;;;;10421840;28;20079;-75
2024/02/18 05:43:06;;;;;;;6.50;2.33;;;;;;;;;;10436242;28;20047;-75
2024/02/18 05:48:10;;;;;;;3.90;2.20;;;;;;;;;;10412912;28;20631;-74
2024/02/18 05:53:14;;;;;;;4.38;2.13;;;;;;;;;;10432646;28;20048;-75
2024/02/18 05:58:17;;;;;;;2.67;2.30;;;;;;;;;;10422597;28;20063;-75
2024/02/18 06:03:22;;;;;;;3.20;2.00;;;;;;;;;;10428824;28;20053;-74
2024/02/18 06:08:26;;;;;;;4.35;2.53;;;;;;;;;;10427879;28;20132;-75
2024/02/18 06:13:29;;;;;;;3.75;2.00;;;;;;;;;;10422055;28;20127;-75
2024/02/18 06:18:34;;;;;;;3.10;1.90;;;;;;;;;;10418814;28;20123;-74
2024/02/18 06:23:37;;;;;;;3.55;1.92;;;;;;;;;;10427246;28;20049;-75
2024/02/18 06:28:41;;;;;;;3.72;1.90;;;;;;;;;;10427272;28;20097;-74
2024/02/18 06:33:46;;;;;;;2.85;1.80;;;;;;;;;;10434552;28;20084;-74
2024/02/18 06:38:50;;;;;;;3.30;1.90;;;;;;;;;;10437720;28;20053;-75
2024/02/18 06:43:53;;;;;;;1.73;1.52;;;;;;;;;;10432568;28;20144;-75
2024/02/18 06:48:57;;;;;;;2.42;1.42;;;;;;;;;;10420425;28;20051;-75
2024/02/18 06:54:01;;;;;;;2.97;1.60;;;;;;;;;;10428896;28;20057;-73
2024/02/18 06:59:04;;;;;;;1.88;1.50;;;;;;;;;;10421902;28;20441;-73
2024/02/18 07:04:09;;;;;;;2.13;1.55;;;;;;;;;;10423925;28;20045;-73
2024/02/18 07:09:12;;;;;;;2.25;1.60;;;;;;;;;;10424923;28;20049;-73
2024/02/18 07:14:15;;;;;;;2.15;1.60;;;;;;;;;;10424200;28;20056;-73
2024/02/18 07:19:20;;;;;;;1.73;1.38;;;;;;;;;;10416494;28;20437;-73
2024/02/18 07:24:23;;;;;;;1.88;1.67;;;;;;;;;;10428650;28;20736;-73
2024/02/18 07:29:27;;;;;;;2.67;1.60;;;;;;;;;;10422515;28;20072;-73
2024/02/18 07:34:31;;;;;;;2.75;1.63;;;;;;;;;;10447559;28;20053;-73
2024/02/18 07:39:35;;;;;;;3.50;2.10;;;;;;;;;;10435395;28;20423;-73
2024/02/18 07:44:38;;;;;;;3.20;1.67;;;;;;;;;;10434504;28;20063;-73
2024/02/18 07:49:43;;;;;;;3.00;2.20;;;;;;;;;;10414626;28;20045;-73
2024/02/18 07:54:48;;;;;;;2.30;2.05;;;;;;;;;;10423110;28;20140;-73
2024/02/18 07:59:51;;;;;;;3.20;2.25;;;;;;;;;;10420897;28;20095;-73
2024/02/18 08:04:56;;;;;;;2.70;2.03;;;;;;;;;;10419063;28;20051;-74
2024/02/18 08:09:59;;;;;;;2.42;1.85;;;;;;;;;;10413043;28;20053;-74
2024/02/18 08:15:03;;;;;;;3.35;2.25;;;;;;;;;;10408435;28;20056;-73
2024/02/18 08:20:09;;;;;;;3.55;2.33;;;;;;;;;;10402928;28;20045;-73
2024/02/18 08:25:12;;;;;;;3.85;2.95;;;;;;;;;;10407938;28;20545;-73
2024/02/18 08:30:16;;;;;;;3.25;2.00;;;;;;;;;;10399505;28;20589;-73
2024/02/18 08:35:22;;;;;;;2.67;1.50;;;;;;;;;;10409181;28;20045;-73
2024/02/18 08:40:26;;;;;;;3.33;1.80;;;;;;;;;;10412637;28;20120;-74
2024/02/18 08:45:30;;;;;;;2.45;1.90;;;;;;;;;;10401995;28;20065;-73
2024/02/18 08:56:13;;;;;;;3.22;1.58;;;;;;;;;;9890348;23;20049;-74
2024/02/18 09:01:19;;;;;;;3.88;2.20;;;;;;;;;;10378219;28;20049;-73
2024/02/18 09:06:22;;;;;;;2.38;1.88;;;;;;;;;;10379104;28;20045;-73
2024/02/18 09:11:27;;;;;;;2.58;2.38;;;;;;;;;;10383833;28;20068;-73
2024/02/18 09:16:30;;;;;;;4.57;2.13;;;;;;;;;;10376531;28;20077;-73
2024/02/18 09:21:34;;;;;;;3.05;2.42;;;;;;;;;;10365050;28;20061;-73
2024/02/18 09:26:38;;;;;;;2.20;2.00;;;;;;;;;;10366878;28;20050;-73
2024/02/18 09:31:42;;;;;;;3.58;1.88;;;;;;;;;;10372555;28;20440;-73
2024/02/18 09:36:45;;;;;;;3.25;2.30;;;;;;;;;;10381620;28;20084;-73
2024/02/18 09:42:01;;;;;;;1.45;1.35;;;;;;;;;;10468081;22;20080;-73
2024/02/18 09:52:43;;;;;;;1.85;1.75;;;;;;;;;;2806255;26;20474;-73
2024/02/18 09:57:48;;;;;;;2.15;1.52;;;;;;;;;;10349625;28;20049;-73
2024/02/18 10:02:51;;;;;;;2.00;1.40;;;;;;;;;;10375087;28;20045;-73
2024/02/18 10:08:02;;;;;;;2.40;1.30;;;;;;;;;;10369254;28;20501;-73
2024/02/18 10:13:08;;;;;;;2.47;1.55;;;;;;;;;;10372425;28;20045;-73
2024/02/18 10:18:13;;;;;;;2.50;1.35;;;;;;;;;;10378067;28;20140;-73
2024/02/18 10:23:16;;;;;;;1.90;1.50;;;;;;;;;;10386033;28;20132;-73
2024/02/18 10:28:21;;;;;;;2.28;1.50;;;;;;;;;;10371529;28;20569;-73
2024/02/18 10:33:25;;;;;;;2.13;1.15;;;;;;;;;;10370242;28;20042;-73
2024/02/18 10:38:30;;;;;;;2.35;1.30;;;;;;;;;;10380605;28;20457;-73
2024/02/18 10:43:39;;;;;;;1.25;1.10;;;;;;;;;;10370131;28;20068;-73
2024/02/18 10:48:43;;;;;;;3.13;1.10;;;;;;;;;;10366209;28;20411;-73
2024/02/18 10:53:49;;;;;;;1.50;0.80;;;;;;;;;;10370268;28;20188;-73
2024/02/18 10:59:04;;;;;;;1.25;1.08;;;;;;;;;;10369201;28;20621;-73
2024/02/18 11:04:09;;;;;;;4.13;1.27;;;;;;;;;;10382036;28;20050;-73
2024/02/18 11:09:12;;;;;;;3.37;1.00;;;;;;;;;;10379107;28;20060;-73
2024/02/18 11:26:37;;;;;;;1.67;0.80;;;;;;;;;;10412255;28;20414;-73
2024/02/18 11:31:54;;;;;;;1.90;0.93;;;;;;;;;;10395305;28;20056;-73
2024/02/18 11:36:58;;;;;;;1.50;0.90;;;;;;;;;;10407148;28;20041;-73
2024/02/18 11:42:10;;;;;;;1.90;1.05;;;;;;;;;;10408117;28;20471;-73
2024/02/18 11:52:53;;;;;;;2.50;1.00;;;;;;;;;;4971978;26;20058;-73
2024/02/18 11:57:57;;;;;;;1.15;0.95;;;;;;;;;;10367267;28;20057;-73
2024/02/18 12:03:01;;;;;;;2.80;1.33;;;;;;;;;;10363905;28;20049;-73
2024/02/18 12:08:07;;;;;;;2.05;1.33;;;;;;;;;;10364594;28;20067;-73
2024/02/18 12:13:11;;;;;;;1.33;0.95;;;;;;;;;;10365892;28;20058;-73
2024/02/18 12:42:07;;;;;;;1.38;0.75;;;;;;;;;;2331607;22;20050;-73
2024/02/18 13:37:09;;;;;;;6.93;1.90;;;;;;;;;;12599939;22;2114263;-82
2024/02/18 13:42:14;;;;;;;2.20;1.33;;;;;;;;;;12649373;23;20022;-82
2024/02/18 13:47:20;;;;;;;4.33;1.63;;;;;;;;;;12675415;23;20053;-84
2024/02/18 13:52:25;;;;;;;2.53;1.35;;;;;;;;;;12676276;23;20028;-82
2024/02/18 13:57:29;;;;;;;4.80;1.40;;;;;;;;;;12674817;23;20029;-83
2024/02/18 14:02:32;;;;;;;1.52;0.95;;;;;;;;;;12672053;23;20258;-83
2024/02/18 14:07:38;;;;;;;2.33;0.98;;;;;;;;;;12678192;23;20030;-81
2024/02/18 14:12:41;;;;;;;1.48;0.80;;;;;;;;;;12682473;23;20017;-81
2024/02/18 14:17:45;;;;;;;2.75;0.90;;;;;;;;;;12679162;23;20022;-82
2024/02/18 14:22:51;;;;;;;1.83;0.70;;;;;;;;;;12679893;23;20021;-81
2024/02/18 14:27:54;;;;;;;1.50;0.82;;;;;;;;;;12679400;23;20025;-81
2024/02/18 14:32:57;;;;;;;1.00;0.90;;;;;;;;;;12614300;23;20037;-81
2024/02/18 14:38:04;;;;;;;1.63;0.80;;;;;;;;;;12601824;23;20018;-81
2024/02/18 14:43:07;;;;;;;1.83;0.98;;;;;;;;;;12681692;23;20037;-81
2024/02/18 14:48:11;;;;;;;1.60;0.80;;;;;;;;;;12649879;23;20081;-82
2024/02/18 14:53:15;;;;;;;1.40;0.95;;;;;;;;;;12651802;23;20014;-82
2024/02/18 14:58:19;;;;;;;1.67;1.02;;;;;;;;;;12684155;23;20029;-81
2024/02/18 15:03:22;;;;;;;1.85;1.00;;;;;;;;;;12663891;23;20017;-82
2024/02/18 15:08:27;;;;;;;2.40;1.27;;;;;;;;;;12672412;23;20048;-81
2024/02/18 15:13:31;;;;;;;0.80;0.80;;;;;;;;;;12660659;23;20018;-84
2024/02/18 15:18:34;;;;;;;2.03;1.05;;;;;;;;;;12659676;23;20458;-85
2024/02/18 15:23:39;;;;;;;1.85;1.33;;;;;;;;;;12660359;23;20038;-84
2024/02/18 15:28:42;;;;;;;2.90;1.30;;;;;;;;;;12663518;23;20018;-83
2024/02/18 15:33:49;;;;;;;3.28;1.50;;;;;;;;;;12665032;23;20022;-86
2024/02/18 15:38:54;;;;;;;4.85;1.50;;;;;;;;;;12664135;23;20033;-84
2024/02/18 15:43:58;;;;;;;1.42;1.10;;;;;;;;;;12662166;23;20033;-84
2024/02/18 15:49:01;;;;;;;2.13;1.10;;;;;;;;;;12663579;23;20026;-83
2024/02/18 15:54:06;;;;;;;1.85;1.00;;;;;;;;;;12662328;23;20034;-85
2024/02/18 15:59:10;;;;;;;2.83;1.08;;;;;;;;;;12662277;23;20033;-84
2024/02/18 16:04:13;;;;;;;1.98;1.15;;;;;;;;;;12660871;23;20034;-86
2024/02/18 16:09:17;;;;;;;2.38;1.13;;;;;;;;;;12662452;23;20022;-83
2024/02/18 16:14:21;;;;;;;4.78;1.38;;;;;;;;;;12659308;23;20088;-84
2024/02/18 16:19:24;;;;;;;2.95;1.20;;;;;;;;;;12662290;23;20045;-86
2024/02/18 16:24:29;;;;;;;2.47;1.40;;;;;;;;;;12661477;23;20037;-83
2024/02/18 16:29:34;;;;;;;3.20;1.05;;;;;;;;;;12674968;23;20021;-86
2024/02/18 16:34:38;;;;;;;1.33;0.90;;;;;;;;;;12662417;23;20026;-83
2024/02/18 16:39:44;;;;;;;1.90;0.90;;;;;;;;;;12659215;23;20101;-85
2024/02/18 16:44:48;;;;;;;2.17;1.08;;;;;;;;;;12660832;23;20022;-84
2024/02/18 16:49:51;;;;;;;3.08;1.35;;;;;;;;;;12658155;23;20052;-86
2024/02/18 16:54:56;;;;;;;2.50;1.20;;;;;;;;;;12658655;23;20026;-82
2024/02/18 17:00:36;;;;;;;2.13;1.17;;;;;;;;;;12509071;23;20527;-81
2024/02/18 17:05:39;;;;;;;2.92;1.30;;;;;;;;;;12495673;23;20019;-85
2024/02/18 17:10:44;;;;;;;1.25;1.00;;;;;;;;;;12480543;23;20031;-84
2024/02/18 17:15:49;;;;;;;1.23;0.80;;;;;;;;;;12425248;23;20514;-81
2024/02/18 17:20:53;;;;;;;1.83;1.08;;;;;;;;;;12419584;23;20030;-80
2024/02/18 17:25:58;;;;;;;0.90;0.88;;;;;;;;;;12425307;23;20027;-81
2024/02/18 17:31:03;;;;;;;2.17;1.13;;;;;;;;;;12417904;23;20036;-81
2024/02/18 17:36:19;;;;;;;1.20;0.80;;;;;;;;;;12414921;23;20031;-80
2024/02/18 17:41:26;;;;;;;1.50;0.93;;;;;;;;;;12418521;23;20028;-81
2024/02/18 17:46:32;;;;;;;2.20;1.10;;;;;;;;;;12418674;23;20031;-81
2024/02/18 17:51:36;;;;;;;1.27;0.63;;;;;;;;;;12423394;23;20110;-80
2024/02/18 17:56:45;;;;;;;1.08;0.60;;;;;;;;;;12416845;23;20059;-80
2024/02/18 18:01:51;;;;;;;1.42;0.98;;;;;;;;;;12416639;23;20797;-81
2024/02/18 18:06:54;;;;;;;1.50;0.80;;;;;;;;;;12417586;23;20575;-80
2024/02/18 18:11:59;;;;;;;2.42;1.20;;;;;;;;;;12424714;23;20115;-80
2024/02/18 18:17:02;;;;;;;1.92;0.80;;;;;;;;;;12517269;23;20387;-81
2024/02/18 18:22:06;;;;;;;1.60;1.30;;;;;;;;;;12534075;23;20037;-81
2024/02/18 18:27:11;;;;;;;1.73;1.60;;;;;;;;;;12539138;23;20667;-81
2024/02/18 18:32:17;;;;;;;1.65;1.20;;;;;;;;;;12501979;23;20082;-81
2024/02/18 18:37:26;;;;;;;1.40;0.90;;;;;;;;;;12514848;23;20309;-81
2024/02/18 18:42:36;;;;;;;0.80;0.70;;;;;;;;;;12509810;23;20027;-81
2024/02/18 18:47:42;;;;;;;2.08;0.68;;;;;;;;;;12540679;23;20061;-80
2024/02/18 18:52:46;;;;;;;1.95;0.98;;;;;;;;;;12514312;23;20035;-81
2024/02/18 18:57:55;;;;;;;2.33;1.45;;;;;;;;;;12512867;23;20023;-81
2024/02/18 19:03:01;;;;;;;2.67;1.42;;;;;;;;;;12510550;23;20027;-81
2024/02/18 19:08:04;;;;;;;;;;;;;;;;;;12552982;23;20026;-81
2024/02/18 19:13:10;;;;;;;0.60;0.60;;;;;;;;;;12536981;23;19918;-81
2024/02/18 19:18:16;;;;;;;0.85;0.85;;;;;;;;;;12514610;23;20099;-81
2024/02/18 19:23:20;;;;;;;2.45;0.90;;;;;;;;;;12509031;23;20042;-81
2024/02/18 19:28:25;;;;;;;1.17;1.05;;;;;;;;;;12534840;23;20543;-81
2024/02/18 19:33:29;;;;;;;1.67;0.90;;;;;;;;;;12527265;23;20030;-85
2024/02/18 19:38:32;;;;;;;1.27;0.90;;;;;;;;;;12528417;23;20027;-82
2024/02/18 19:43:39;;;;;;;1.40;1.00;;;;;;;;;;12547753;23;20074;-86
2024/02/18 19:48:42;;;;;;;2.10;1.10;;;;;;;;;;12525138;23;20525;-85
2024/02/18 19:53:48;;;;;;;1.70;1.08;;;;;;;;;;12531432;23;20027;-81
2024/02/18 19:58:55;;;;;;;1.15;0.90;;;;;;;;;;12503019;23;20023;-81
2024/02/18 20:03:59;;;;;;;0.98;0.88;;;;;;;;;;12530835;23;20050;-81
2024/02/18 20:09:05;;;;;;;1.33;1.17;;;;;;;;;;12534165;23;20129;-81
2024/02/18 20:14:13;;;;;;;2.05;1.23;;;;;;;;;;12506656;23;20022;-81
2024/02/18 20:19:17;;;;;;;0.98;0.80;;;;;;;;;;12514873;23;20106;-81
2024/02/18 20:24:23;;;;;;;1.50;1.05;;;;;;;;;;12544105;23;20026;-81
2024/02/18 20:29:28;;;;;;;;;;;;;;;;;;12540263;23;20027;-81
2024/02/18 20:34:34;;;;;;;1.48;1.23;;;;;;;;;;12516069;23;19921;-81
2024/02/18 20:39:41;;;;;;;0.80;0.80;;;;;;;;;;12552143;23;20050;-81
2024/02/18 20:44:48;;;;;;;1.55;1.10;;;;;;;;;;12514013;23;20030;-82
2024/02/18 20:49:54;;;;;;;1.52;1.20;;;;;;;;;;12535198;23;20368;-82
2024/02/18 20:55:02;;;;;;;1.67;1.33;;;;;;;;;;12538110;23;20078;-81
2024/02/18 21:00:10;;;;;;;2.28;1.35;;;;;;;;;;12540396;23;20045;-81
2024/02/18 21:05:13;;;;;;;2.15;1.23;;;;;;;;;;12513678;23;20030;-81
2024/02/18 21:10:18;;;;;;;3.08;1.80;;;;;;;;;;12532304;23;20097;-82
2024/02/18 21:15:23;;;;;;;4.63;2.00;;;;;;;;;;12511504;23;20375;-81
2024/02/18 21:20:27;;;;;;;2.92;2.15;;;;;;;;;;12512624;23;20829;-81
2024/02/18 21:25:30;;;;;;;4.18;2.55;;;;;;;;;;12539255;23;20371;-82
2024/02/18 21:30:36;;;;;;;3.30;2.50;;;;;;;;;;12510921;23;20335;-82
2024/02/18 21:35:39;;;;;;;4.70;2.50;;;;;;;;;;12510920;23;20030;-82
2024/02/18 21:40:43;;;;;;;3.63;2.35;;;;;;;;;;12534532;23;20026;-81
2024/02/18 21:45:48;;;;;;;3.92;2.42;;;;;;;;;;12536860;23;20076;-81
2024/02/18 21:50:51;;;;;;;4.53;2.75;;;;;;;;;;12549433;23;20959;-81
2024/02/18 21:55:55;;;;;;;3.38;2.45;;;;;;;;;;12542174;23;20098;-82
2024/02/18 22:00:59;;;;;;;4.40;3.15;;;;;;;;;;12537811;23;20035;-81
2024/02/18 22:06:03;;;;;;;4.47;2.78;;;;;;;;;;12507663;23;20078;-81
2024/02/18 22:11:06;;;;;;;3.97;2.47;;;;;;;;;;12502415;23;20743;-81
2024/02/18 22:16:11;;;;;;;4.25;2.80;;;;;;;;;;12501469;23;20126;-82
2024/02/18 22:21:20;;;;;;;4.30;2.80;;;;;;;;;;12502331;23;20090;-81
2024/02/18 22:26:24;;;;;;;4.60;2.67;;;;;;;;;;12502887;23;20047;-82
2024/02/18 22:31:28;;;;;;;3.95;2.83;;;;;;;;;;12503223;23;20033;-81
2024/02/18 22:36:32;;;;;;;3.13;2.63;;;;;;;;;;12501253;23;20023;-82
2024/02/18 22:41:35;;;;;;;2.78;2.20;;;;;;;;;;12501179;23;20027;-82
2024/02/18 22:46:40;;;;;;;4.55;2.30;;;;;;;;;;12500896;23;20113;-81
2024/02/18 22:51:50;;;;;;;2.70;2.22;;;;;;;;;;12532710;23;20027;-82
2024/02/18 22:56:54;;;;;;;4.47;2.35;;;;;;;;;;12537612;23;20026;-81
2024/02/18 23:01:59;;;;;;;3.22;1.90;;;;;;;;;;12508408;23;20056;-81
2024/02/18 23:07:06;;;;;;;2.38;2.17;;;;;;;;;;12504904;23;20030;-81
2024/02/18 23:12:11;;;;;;;2.72;1.90;;;;;;;;;;12508125;23;20288;-84
2024/02/18 23:17:16;;;;;;;2.33;1.90;;;;;;;;;;12488160;23;20034;-83
2024/02/18 23:22:19;;;;;;;3.50;2.20;;;;;;;;;;12478484;23;20055;-84
2024/02/18 23:27:23;;;;;;;3.17;2.10;;;;;;;;;;12528781;23;20078;-85
2024/02/18 23:32:28;;;;;;;3.33;1.90;;;;;;;;;;12535292;23;20023;-85
2024/02/18 23:37:32;;;;;;;3.30;1.88;;;;;;;;;;12536792;23;20027;-81
2024/02/18 23:42:35;;;;;;;3.15;2.22;;;;;;;;;;12537134;23;20027;-84
2024/02/18 23:47:40;;;;;;;2.42;1.83;;;;;;;;;;12539435;23;20090;-81
2024/02/18 23:52:43;;;;;;;2.25;1.80;;;;;;;;;;12539650;23;20034;-86
2024/02/18 23:57:46;;;;;;;3.10;1.80;;;;;;;;;;12559851;23;20082;-83
